Opp, AL

6:41 AM CST on December 26, 2014 (GMT -0600)
Andalusia | Change Station
CLOSE
Current Station
Airport
Location: Andalusia,
Elevation: 308 ft
Nearby Weather Stations

Elev 308 ft 31.31 °N, 86.39 °W | Updated 14 minutes ago

Mostly Cloudy
Mostly Cloudy
37 °F
Feels Like 35 °F
N
4
Wind Variable Wind from East

Today
High -- | Low -- °F
--% Chance of Precip.
Yesterday
High -- | Low -- °F
Precip. -- in
6:42 AM 4:49 PM
Waxing Crescent, 25% visible
Pressure 30.24 in
Visibility 3.0 miles
Clouds Few 100 ft
Windchill 35 °F
Dew Point 34 °F
Humidity 87%
Rainfall 0.00 in
Snow Depth Not available.
UV 0 out of 12
Pollen 2.00 out of 12
Air Quality Not available.
Flu Activity Not available.
SPECI K79J 261227Z AUTO 10003KT 3SM BR FEW001 03/01 A3024 RMK AO2

More Conditions Fewer Conditions

Pressure 30.24 in
Visibility 3.0 miles
Clouds Few 100 ft
Windchill 35 °F
Dew Point 34 °F
Humidity 87%
Rainfall 0.00 in
Snow Depth Not available.
UV 0 out of 12
Pollen 2.00 out of 12
Air Quality Not available.
Flu Activity Not available.
SPECI K79J 261227Z AUTO 10003KT 3SM BR FEW001 03/01 A3024 RMK AO2

More Conditions Fewer Conditions

10-Day Weather Forecast

Almanac

Astronomy

Dec. 26, 2014 Rise Set
Actual Time
Civil Twilight
Nautical Twilight
Astronomical Twilight
Moon
Length of Visible Light
Length of Day
Tomorrow will be .
, % of the Moon is Illuminated

Today's Extremes

State Highs State Lows

Community

WunderPhotos

Upload Photos

1,780,588 photos uploaded!

WunderBlogs® & News

Nearby

Air Quality

  Air Quality AQ Index Pollutant
Not available.

Snow Depth

Station Depth Elevation

Earthquake Activity

City Distance Mag. Time & Date
Minimum magnitude displayed is 2.5.

Coastal Water Temperatures

Place Temperature

Nearby Weather Stations